Time;durP1;ratioP1;P1;durP2;ratioP2;P2;SDS_P1;SDS_P2;PMS_P1;PMS_P2;Temp;Humidity;BMP_temperature;BMP_pressure;BME280_temperature;BME280_humidity;BME280_pressure;Samples;Min_cycle;Max_cycle;Signal;HPM_P1;HPM_P2
2021/09/04 00:00:18;;;;;;;19.85;14.48;;;15.10;99.90;;;;;;5089679;28;20091;-57
2021/09/04 00:02:45;;;;;;;20.60;14.32;;;15.10;99.90;;;;;;5089222;28;20056;-57
2021/09/04 00:05:13;;;;;;;20.20;13.50;;;15.10;99.90;;;;;;5088969;28;20522;-57
2021/09/04 00:07:39;;;;;;;19.92;13.27;;;15.10;99.90;;;;;;5088794;28;20059;-57
2021/09/04 00:10:12;;;;;;;17.80;13.50;;;15.10;99.90;;;;;;5088655;28;20078;-57
2021/09/04 00:12:42;;;;;;;21.75;15.45;;;15.10;99.90;;;;;;5089353;28;20048;-58
2021/09/04 00:15:10;;;;;;;15.52;12.38;;;15.10;99.90;;;;;;5088709;28;20051;-57
2021/09/04 00:17:41;;;;;;;20.10;13.45;;;15.10;99.90;;;;;;5089535;28;20062;-57
2021/09/04 00:20:09;;;;;;;16.83;13.77;;;15.10;99.90;;;;;;5088777;28;20089;-56
2021/09/04 00:22:38;;;;;;;21.10;13.23;;;15.10;99.90;;;;;;5089102;28;20056;-57
2021/09/04 00:25:10;;;;;;;16.83;13.55;;;15.10;99.90;;;;;;5088698;28;20055;-57
2021/09/04 00:27:36;;;;;;;15.80;13.10;;;15.10;99.90;;;;;;5088595;28;20052;-57
2021/09/04 00:30:03;;;;;;;20.42;15.40;;;15.20;99.90;;;;;;5088033;28;20492;-58
2021/09/04 00:32:30;;;;;;;17.20;12.80;;;15.10;99.90;;;;;;5068045;28;20058;-57
2021/09/04 00:34:58;;;;;;;16.67;14.30;;;15.10;99.90;;;;;;5083763;28;20443;-57
2021/09/04 00:37:24;;;;;;;17.30;12.90;;;15.10;99.90;;;;;;5087638;28;20087;-57
2021/09/04 00:39:55;;;;;;;17.27;13.10;;;15.10;99.90;;;;;;5088052;28;20056;-57
2021/09/04 00:42:26;;;;;;;15.90;12.48;;;15.10;99.90;;;;;;5087922;28;20508;-57
2021/09/04 00:44:57;;;;;;;19.17;14.02;;;15.10;99.90;;;;;;5087695;28;20538;-56
2021/09/04 00:47:23;;;;;;;18.00;13.13;;;15.10;99.90;;;;;;5088661;28;20183;-56
2021/09/04 00:49:50;;;;;;;16.73;12.55;;;15.10;99.90;;;;;;5088524;28;20055;-60
2021/09/04 00:52:18;;;;;;;18.45;12.88;;;15.10;99.90;;;;;;5088615;28;20055;-59
2021/09/04 00:54:47;;;;;;;17.98;12.23;;;15.10;99.90;;;;;;5088211;28;20058;-59
2021/09/04 00:57:14;;;;;;;16.08;12.55;;;15.10;99.90;;;;;;5087927;28;20044;-57
2021/09/04 00:59:40;;;;;;;18.58;12.57;;;15.10;99.90;;;;;;5088050;28;20408;-57
2021/09/04 01:02:07;;;;;;;18.17;12.75;;;15.10;99.90;;;;;;5087625;28;20562;-57
2021/09/04 01:04:34;;;;;;;17.17;11.13;;;15.00;99.90;;;;;;5088148;28;20085;-57
2021/09/04 01:07:03;;;;;;;16.35;11.65;;;15.00;99.90;;;;;;5087996;28;20048;-57
2021/09/04 01:09:32;;;;;;;18.20;12.75;;;15.00;99.90;;;;;;5086708;28;20062;-58
2021/09/04 01:12:01;;;;;;;18.95;12.40;;;15.00;99.90;;;;;;5087965;28;20439;-56
2021/09/04 01:14:27;;;;;;;14.18;11.20;;;15.00;99.90;;;;;;5074680;28;20063;-58
2021/09/04 01:16:56;;;;;;;16.13;11.57;;;15.00;99.90;;;;;;5094159;28;20053;-57
2021/09/04 01:19:25;;;;;;;16.92;11.77;;;15.00;99.90;;;;;;5088011;28;20113;-57
2021/09/04 01:21:53;;;;;;;16.90;11.27;;;15.00;99.90;;;;;;5088013;28;20139;-56
2021/09/04 01:24:19;;;;;;;17.92;11.38;;;15.00;99.90;;;;;;5088179;28;20105;-56
2021/09/04 01:26:46;;;;;;;17.65;12.48;;;15.00;99.90;;;;;;5086052;28;20052;-57
2021/09/04 01:29:17;;;;;;;15.73;10.55;;;15.00;99.90;;;;;;5087381;28;20056;-57
2021/09/04 01:31:46;;;;;;;15.43;11.52;;;15.00;99.90;;;;;;5087552;28;20055;-57
2021/09/04 01:34:14;;;;;;;15.07;10.68;;;15.00;99.90;;;;;;5087737;28;20706;-57
2021/09/04 01:36:43;;;;;;;14.63;9.98;;;15.00;99.90;;;;;;5087196;28;20063;-58
2021/09/04 01:39:11;;;;;;;13.73;9.65;;;14.90;99.90;;;;;;5087126;28;20572;-57
2021/09/04 01:41:40;;;;;;;15.02;9.93;;;15.00;99.90;;;;;;5087134;28;20535;-57
2021/09/04 01:44:13;;;;;;;14.57;10.63;;;15.00;99.90;;;;;;5087640;28;20424;-57
2021/09/04 01:46:39;;;;;;;16.70;10.02;;;14.90;99.90;;;;;;5087576;28;20055;-58
2021/09/04 01:49:08;;;;;;;14.73;10.02;;;15.00;99.90;;;;;;5090827;28;20048;-57
2021/09/04 01:51:34;;;;;;;19.50;10.05;;;15.00;99.90;;;;;;5093163;28;20518;-57
2021/09/04 01:54:00;;;;;;;11.85;9.25;;;15.00;99.90;;;;;;5094582;28;20059;-57
2021/09/04 01:56:37;;;;;;;14.30;9.88;;;15.00;99.90;;;;;;5094002;28;20510;-57
2021/09/04 01:59:03;;;;;;;14.20;10.18;;;15.00;99.90;;;;;;5094613;28;20773;-57
2021/09/04 02:01:32;;;;;;;12.00;9.02;;;15.00;99.90;;;;;;5094027;28;20526;-58
2021/09/04 02:04:03;;;;;;;12.50;9.50;;;15.00;99.90;;;;;;5094364;28;20569;-58
2021/09/04 02:06:32;;;;;;;15.18;9.60;;;14.90;99.90;;;;;;5092174;28;20108;-57
2021/09/04 02:08:58;;;;;;;15.68;9.75;;;14.90;99.90;;;;;;5092812;28;20130;-57
2021/09/04 02:11:29;;;;;;;12.10;8.45;;;14.90;99.90;;;;;;5083673;28;20165;-57
2021/09/04 02:13:57;;;;;;;14.65;8.65;;;14.90;99.90;;;;;;5093778;28;20537;-57
2021/09/04 02:16:26;;;;;;;12.05;8.52;;;14.90;99.90;;;;;;5092104;28;20591;-57
2021/09/04 02:18:55;;;;;;;12.70;8.70;;;14.90;99.90;;;;;;5093345;28;20135;-58
2021/09/04 02:21:25;;;;;;;15.35;8.73;;;14.90;99.90;;;;;;5091660;28;20122;-57
2021/09/04 02:23:54;;;;;;;13.15;8.85;;;14.80;99.90;;;;;;5086119;28;20080;-57
2021/09/04 02:26:21;;;;;;;11.63;8.40;;;14.80;99.90;;;;;;5093266;28;20433;-56
2021/09/04 02:28:51;;;;;;;11.68;8.13;;;14.80;99.90;;;;;;5092541;28;20154;-57
2021/09/04 02:31:23;;;;;;;11.50;7.88;;;14.90;99.90;;;;;;5093599;28;20062;-58
2021/09/04 02:33:56;;;;;;;12.38;7.80;;;14.80;99.90;;;;;;5092226;28;20458;-57
2021/09/04 02:36:24;;;;;;;13.70;8.43;;;14.80;99.90;;;;;;5093466;28;20143;-57
2021/09/04 02:38:50;;;;;;;13.23;7.68;;;14.80;99.90;;;;;;5093496;28;20060;-57
2021/09/04 02:41:22;;;;;;;12.13;7.30;;;14.80;99.90;;;;;;5093277;28;20416;-58
2021/09/04 02:43:52;;;;;;;12.07;8.95;;;14.80;99.90;;;;;;5093226;28;20067;-57
2021/09/04 02:46:22;;;;;;;;;;;14.80;99.90;;;;;;5093741;28;20129;-57
2021/09/04 02:48:53;;;;;;;8.32;7.00;;;14.80;99.90;;;;;;5093602;28;19920;-58
2021/09/04 02:51:23;;;;;;;11.32;7.13;;;14.80;99.90;;;;;;5093065;28;20109;-57
2021/09/04 02:53:52;;;;;;;13.15;7.45;;;14.80;99.90;;;;;;5093005;28;20055;-57
2021/09/04 02:56:21;;;;;;;9.38;6.35;;;14.80;99.90;;;;;;5093494;28;20075;-57
2021/09/04 02:58:50;;;;;;;10.68;7.18;;;14.80;99.90;;;;;;5087587;28;20040;-57
2021/09/04 03:01:23;;;;;;;12.45;7.28;;;14.80;99.90;;;;;;5088650;28;20067;-58
2021/09/04 03:03:54;;;;;;;11.70;7.22;;;14.80;99.90;;;;;;5090422;28;20570;-57
2021/09/04 03:06:22;;;;;;;11.02;6.53;;;14.80;99.90;;;;;;5089338;28;20061;-58
2021/09/04 03:08:50;;;;;;;8.98;6.32;;;14.80;99.90;;;;;;5089960;28;20052;-57
2021/09/04 03:11:23;;;;;;;11.95;6.90;;;14.70;99.90;;;;;;5089871;28;20843;-57
2021/09/04 03:13:53;;;;;;;12.98;6.40;;;14.80;99.90;;;;;;5085587;28;20091;-58
2021/09/04 03:16:22;;;;;;;11.98;6.38;;;14.70;99.90;;;;;;5090331;28;20047;-57
2021/09/04 03:18:53;;;;;;;11.18;6.68;;;14.70;99.90;;;;;;5090968;28;20055;-58
2021/09/04 03:21:21;;;;;;;12.35;6.53;;;14.70;99.90;;;;;;5089929;28;20059;-58
2021/09/04 03:23:58;;;;;;;8.45;6.28;;;14.70;99.90;;;;;;5090594;28;20063;-58
2021/09/04 03:26:28;;;;;;;13.38;6.45;;;14.80;99.90;;;;;;5090214;28;20067;-57
2021/09/04 03:28:58;;;;;;;10.15;5.78;;;14.80;99.90;;;;;;5070444;28;20054;-58
2021/09/04 03:31:28;;;;;;;11.20;5.88;;;14.70;99.90;;;;;;5074724;28;20051;-57
2021/09/04 03:33:56;;;;;;;13.00;6.57;;;14.80;99.90;;;;;;5089437;28;20062;-57
2021/09/04 03:36:25;;;;;;;8.05;6.15;;;14.70;99.90;;;;;;5089458;28;20075;-57
2021/09/04 03:38:54;;;;;;;11.57;5.72;;;14.80;99.90;;;;;;5089089;28;20504;-57
2021/09/04 03:41:21;;;;;;;10.93;6.68;;;14.80;99.90;;;;;;5087788;28;20610;-57
2021/09/04 03:43:48;;;;;;;8.25;6.38;;;14.80;99.90;;;;;;5088776;28;20060;-57
2021/09/04 03:46:17;;;;;;;13.98;7.38;;;14.80;99.90;;;;;;5089473;28;20056;-57
2021/09/04 03:48:46;;;;;;;11.48;6.57;;;14.70;99.90;;;;;;5089720;28;20052;-59
2021/09/04 03:51:16;;;;;;;9.93;6.45;;;14.70;99.90;;;;;;5089313;28;20044;-57
2021/09/04 03:53:46;;;;;;;11.63;6.90;;;14.80;99.90;;;;;;5088761;28;20205;-57
2021/09/04 03:56:12;;;;;;;7.95;6.00;;;14.80;99.90;;;;;;5088911;28;20048;-57
2021/09/04 03:58:43;;;;;;;12.27;6.55;;;14.80;99.90;;;;;;5087125;28;20059;-57
2021/09/04 04:01:10;;;;;;;10.87;6.30;;;14.70;99.90;;;;;;5089713;28;20832;-57
2021/09/04 04:03:36;;;;;;;14.40;7.30;;;14.70;99.90;;;;;;5088804;28;20094;-57
2021/09/04 04:06:07;;;;;;;8.25;5.82;;;14.80;99.90;;;;;;5089111;28;20112;-58
2021/09/04 04:08:36;;;;;;;10.63;5.82;;;14.80;99.90;;;;;;5088720;28;20051;-58
2021/09/04 04:11:08;;;;;;;8.82;5.32;;;14.70;99.90;;;;;;5088767;28;20157;-59
2021/09/04 04:13:40;;;;;;;11.57;5.60;;;14.70;99.90;;;;;;5088354;28;20155;-58
2021/09/04 04:16:07;;;;;;;12.77;5.63;;;14.70;99.90;;;;;;5089096;28;20310;-58
2021/09/04 04:18:34;;;;;;;10.82;5.70;;;14.70;99.90;;;;;;5088563;28;20187;-58
2021/09/04 04:21:01;;;;;;;10.25;5.63;;;14.70;99.90;;;;;;5088966;28;20056;-58
2021/09/04 04:23:30;;;;;;;9.73;4.90;;;14.70;99.90;;;;;;5087198;28;20555;-58
2021/09/04 04:25:57;;;;;;;8.32;4.85;;;14.70;99.90;;;;;;5087360;28;20051;-58
2021/09/04 04:28:27;;;;;;;10.07;5.35;;;14.70;99.90;;;;;;5088653;28;20047;-58
2021/09/04 04:30:53;;;;;;;8.77;5.10;;;14.60;99.90;;;;;;5085153;28;20074;-58
2021/09/04 04:33:21;;;;;;;7.82;5.05;;;14.70;99.90;;;;;;5088335;28;20070;-59
2021/09/04 04:35:50;;;;;;;10.20;5.00;;;14.60;99.90;;;;;;5088234;28;20060;-58
2021/09/04 04:38:18;;;;;;;8.75;4.60;;;14.70;99.90;;;;;;5088555;28;20051;-59
2021/09/04 04:40:45;;;;;;;9.07;4.68;;;14.70;99.90;;;;;;5087715;28;20071;-59
2021/09/04 04:43:14;;;;;;;7.55;4.63;;;14.70;99.90;;;;;;5087774;28;20052;-59
2021/09/04 04:45:43;;;;;;;8.60;4.68;;;14.70;99.90;;;;;;5087848;28;20424;-58
2021/09/04 04:48:10;;;;;;;9.63;5.45;;;14.70;99.90;;;;;;5088428;28;20052;-58
2021/09/04 04:50:42;;;;;;;8.80;5.22;;;14.70;99.90;;;;;;5088628;28;20060;-59
2021/09/04 04:53:15;;;;;;;8.70;5.15;;;14.70;99.90;;;;;;5088479;28;20056;-58
2021/09/04 04:55:44;;;;;;;9.88;5.18;;;14.70;99.90;;;;;;5087989;28;20056;-58
2021/09/04 04:58:10;;;;;;;9.57;5.25;;;14.70;99.90;;;;;;5087933;28;20087;-58
2021/09/04 05:00:42;;;;;;;7.78;4.32;;;14.70;99.90;;;;;;5088326;28;20056;-58
2021/09/04 05:03:12;;;;;;;10.40;5.38;;;14.70;99.90;;;;;;5087921;28;20135;-59
2021/09/04 05:05:39;;;;;;;9.25;5.68;;;14.70;99.90;;;;;;5086210;28;20058;-58
2021/09/04 05:08:10;;;;;;;7.97;4.85;;;14.70;99.90;;;;;;5087102;28;20496;-58
2021/09/04 05:10:39;;;;;;;10.18;5.18;;;14.70;99.90;;;;;;5087821;28;20051;-58
2021/09/04 05:13:10;;;;;;;9.70;5.53;;;14.70;99.90;;;;;;5087624;28;20519;-58
2021/09/04 05:15:38;;;;;;;9.32;5.38;;;14.70;99.90;;;;;;5087247;28;20062;-59
2021/09/04 05:18:09;;;;;;;10.50;5.05;;;14.70;99.90;;;;;;5087700;28;20047;-58
2021/09/04 05:20:38;;;;;;;8.98;5.13;;;14.80;99.90;;;;;;5088194;28;20066;-58
2021/09/04 05:23:04;;;;;;;7.43;4.72;;;14.70;99.90;;;;;;5088380;28;20054;-59
2021/09/04 05:25:34;;;;;;;10.98;5.60;;;14.80;99.90;;;;;;5087369;28;20052;-57
2021/09/04 05:28:04;;;;;;;9.40;6.38;;;14.80;99.90;;;;;;5083393;28;20059;-57
2021/09/04 05:30:30;;;;;;;7.32;5.03;;;15.00;99.90;;;;;;5084824;28;20106;-57
2021/09/04 05:33:00;;;;;;;10.10;4.75;;;15.00;99.90;;;;;;5067788;28;20059;-57
2021/09/04 05:35:27;;;;;;;33.83;25.25;;;15.00;99.90;;;;;;5069600;28;20084;-58
2021/09/04 05:37:55;;;;;;;25.33;19.65;;;15.10;99.90;;;;;;5076377;28;20048;-58
2021/09/04 05:40:23;;;;;;;35.45;27.52;;;15.10;99.90;;;;;;5078992;28;20523;-58
2021/09/04 05:42:54;;;;;;;14.35;9.43;;;15.10;99.90;;;;;;5087062;28;20060;-47
2021/09/04 05:45:25;;;;;;;44.30;37.72;;;15.20;99.90;;;;;;5087683;28;20150;-46
2021/09/04 05:47:56;;;;;;;16.70;11.30;;;15.30;99.90;;;;;;5083092;28;20051;-47
2021/09/04 05:50:25;;;;;;;13.05;7.45;;;15.40;99.90;;;;;;5086977;28;20052;-46
2021/09/04 05:52:51;;;;;;;10.88;5.78;;;15.40;99.90;;;;;;5087489;28;20063;-46
2021/09/04 05:55:17;;;;;;;10.40;6.47;;;15.40;99.90;;;;;;5076971;28;20056;-57
2021/09/04 05:57:49;;;;;;;9.70;5.05;;;15.40;99.90;;;;;;5065879;28;20429;-56
2021/09/04 06:00:16;;;;;;;6.53;4.30;;;15.40;99.90;;;;;;5067465;28;20409;-57
2021/09/04 06:02:48;;;;;;;27.15;22.20;;;15.40;99.90;;;;;;5070182;28;20100;-55
2021/09/04 06:05:22;;;;;;;36.17;29.73;;;15.50;99.90;;;;;;5083417;28;20059;-57
2021/09/04 06:07:51;;;;;;;13.40;9.70;;;15.40;99.90;;;;;;5067083;28;20163;-57
2021/09/04 06:10:20;;;;;;;15.27;11.07;;;15.50;99.90;;;;;;5067605;28;20063;-57
2021/09/04 06:12:49;;;;;;;62.67;54.88;;;15.50;99.90;;;;;;5081424;28;20131;-57
2021/09/04 06:15:17;;;;;;;14.00;9.63;;;15.70;99.90;;;;;;5087309;28;20397;-54
2021/09/04 06:17:49;;;;;;;;;;;15.70;99.90;;;;;;5088108;28;20044;-56
2021/09/04 06:20:18;;;;;;;17.27;12.73;;;15.70;99.90;;;;;;5087944;28;20078;-56
2021/09/04 06:22:47;;;;;;;10.38;4.65;;;15.70;99.90;;;;;;5088005;28;20056;-56
2021/09/04 06:25:14;;;;;;;30.52;25.00;;;15.70;99.90;;;;;;5087926;28;20052;-56
2021/09/04 06:27:40;;;;;;;14.68;10.35;;;15.80;99.90;;;;;;5105431;28;20086;-51
2021/09/04 06:30:10;;;;;;;9.35;5.78;;;15.80;99.90;;;;;;5070041;28;20052;-52
2021/09/04 06:32:39;;;;;;;23.42;19.00;;;15.80;99.90;;;;;;5071034;28;20139;-54
2021/09/04 06:35:06;;;;;;;79.00;70.55;;;15.90;99.90;;;;;;5083733;28;20060;-51
2021/09/04 06:37:35;;;;;;;16.83;12.05;;;16.00;99.90;;;;;;5083406;28;20433;-49
2021/09/04 06:40:07;;;;;;;24.17;18.83;;;15.90;99.90;;;;;;5080248;28;20643;-49
2021/09/04 06:42:40;;;;;;;10.05;5.25;;;15.90;99.90;;;;;;5082316;28;20045;-49
2021/09/04 06:45:13;;;;;;;12.88;5.05;;;16.00;99.90;;;;;;5079750;28;20123;-57
2021/09/04 06:47:41;;;;;;;10.63;5.38;;;16.00;99.90;;;;;;5093155;28;20051;-52
2021/09/04 06:50:11;;;;;;;15.05;10.68;;;16.10;99.90;;;;;;5092237;28;20126;-50
2021/09/04 06:52:37;;;;;;;8.05;5.00;;;16.10;99.90;;;;;;5086847;28;20099;-49
2021/09/04 06:55:11;;;;;;;29.73;21.75;;;16.00;99.90;;;;;;5091361;28;20052;-55
2021/09/04 06:57:43;;;;;;;55.83;44.80;;;16.10;99.90;;;;;;5082853;28;20522;-48
2021/09/04 07:00:10;;;;;;;63.17;49.78;;;16.10;99.90;;;;;;5091296;28;20108;-50
2021/09/04 07:02:37;;;;;;;15.10;11.70;;;16.10;99.90;;;;;;5090906;28;20149;-49
2021/09/04 07:05:07;;;;;;;9.13;4.88;;;16.20;99.90;;;;;;5074945;28;20064;-49
2021/09/04 07:07:36;;;;;;;8.98;5.57;;;16.20;99.90;;;;;;5074439;28;20121;-49
2021/09/04 07:10:03;;;;;;;19.35;12.95;;;16.30;99.90;;;;;;5080975;28;20123;-52
2021/09/04 07:12:34;;;;;;;30.27;22.55;;;16.30;99.90;;;;;;5086896;28;20062;-48
2021/09/04 07:15:06;;;;;;;44.28;37.55;;;16.40;99.90;;;;;;5075366;28;20136;-51
2021/09/04 07:17:35;;;;;;;24.85;20.75;;;16.40;99.90;;;;;;5086714;28;20052;-49
2021/09/04 07:20:08;;;;;;;15.20;11.13;;;16.40;99.90;;;;;;5091201;28;20087;-47
2021/09/04 07:22:37;;;;;;;17.50;12.73;;;16.40;99.90;;;;;;5099221;28;20052;-50
2021/09/04 07:25:07;;;;;;;9.23;4.80;;;16.50;99.90;;;;;;5078688;28;20056;-50
2021/09/04 07:27:33;;;;;;;20.42;15.40;;;16.50;99.90;;;;;;5077840;28;20049;-51
2021/09/04 07:29:59;;;;;;;8.00;4.13;;;16.50;99.90;;;;;;5088864;28;20059;-50
2021/09/04 07:32:26;;;;;;;6.72;3.38;;;16.50;99.90;;;;;;5080654;28;20055;-50
2021/09/04 07:34:58;;;;;;;11.88;7.03;;;16.60;99.90;;;;;;5087000;28;20128;-58
2021/09/04 07:37:29;;;;;;;49.17;39.90;;;16.60;99.90;;;;;;5080072;28;20052;-51
2021/09/04 07:39:57;;;;;;;63.08;54.35;;;16.60;99.90;;;;;;5086730;28;20054;-51
2021/09/04 07:42:27;;;;;;;8.98;5.75;;;16.70;99.90;;;;;;5089123;28;20097;-54
2021/09/04 07:44:56;;;;;;;30.00;26.70;;;16.80;99.90;;;;;;5074060;28;20052;-49
2021/09/04 07:47:28;;;;;;;8.63;4.28;;;16.90;99.90;;;;;;5087482;28;20496;-52
2021/09/04 07:49:54;;;;;;;22.25;16.42;;;17.00;99.90;;;;;;5087900;28;20051;-53
2021/09/04 07:52:23;;;;;;;12.15;7.55;;;17.00;99.90;;;;;;5083234;28;20466;-49
2021/09/04 07:54:49;;;;;;;7.10;3.88;;;17.00;99.90;;;;;;5084458;28;20052;-51
2021/09/04 07:57:21;;;;;;;12.00;6.43;;;17.00;99.90;;;;;;5087552;28;20052;-52
2021/09/04 07:59:52;;;;;;;11.95;7.97;;;17.00;99.90;;;;;;5087623;28;20450;-53
2021/09/04 08:02:31;;;;;;;10.03;6.97;;;17.10;99.90;;;;;;5084609;28;20040;-52
2021/09/04 08:05:03;;;;;;;7.47;3.83;;;17.10;99.90;;;;;;5086106;28;20332;-49
2021/09/04 08:07:32;;;;;;;7.07;3.47;;;17.10;99.90;;;;;;5086445;28;20097;-49
2021/09/04 08:10:01;;;;;;;8.27;3.55;;;17.20;99.90;;;;;;5082965;28;20047;-50
2021/09/04 08:12:29;;;;;;;9.70;3.83;;;17.30;99.90;;;;;;5086977;28;20412;-49
2021/09/04 08:14:59;;;;;;;8.93;4.05;;;17.40;99.90;;;;;;5088582;28;20064;-53
2021/09/04 08:17:25;;;;;;;7.25;3.47;;;17.30;99.90;;;;;;5078069;28;20416;-56
2021/09/04 08:19:54;;;;;;;18.23;12.73;;;17.40;99.90;;;;;;5080532;28;20506;-59
2021/09/04 08:22:23;;;;;;;41.92;30.83;;;17.50;99.90;;;;;;5087484;28;20043;-58
2021/09/04 08:24:52;;;;;;;52.22;43.42;;;17.60;99.90;;;;;;5086862;28;20097;-58
2021/09/04 08:27:22;;;;;;;15.05;10.63;;;17.70;99.90;;;;;;5087972;28;20048;-58
2021/09/04 08:29:51;;;;;;;6.68;3.72;;;17.80;99.90;;;;;;5089123;28;20055;-58
2021/09/04 08:32:19;;;;;;;9.18;4.68;;;17.70;99.90;;;;;;5089222;28;20135;-58
2021/09/04 08:34:47;;;;;;;13.00;6.10;;;17.80;99.90;;;;;;5088425;28;20134;-58
2021/09/04 08:37:16;;;;;;;9.50;6.82;;;17.80;99.90;;;;;;5087257;28;20555;-58
2021/09/04 08:39:48;;;;;;;11.77;5.15;;;17.80;99.90;;;;;;5070790;28;20399;-58
2021/09/04 08:42:17;;;;;;;10.13;5.18;;;17.90;99.90;;;;;;5088730;28;20512;-58
2021/09/04 08:44:43;;;;;;;8.73;3.85;;;17.90;99.90;;;;;;5086561;28;20052;-58
2021/09/04 08:47:14;;;;;;;8.15;3.50;;;18.00;99.90;;;;;;5087843;28;20057;-57
2021/09/04 08:49:46;;;;;;;8.90;4.22;;;18.00;99.90;;;;;;5087393;28;20792;-58
2021/09/04 08:52:12;;;;;;;;;;;18.10;99.90;;;;;;5087354;28;20799;-58
2021/09/04 08:54:41;;;;;;;6.10;3.53;;;18.00;99.90;;;;;;5083433;28;19923;-58
2021/09/04 08:57:13;;;;;;;6.40;3.00;;;18.00;99.90;;;;;;5066930;28;20075;-52
2021/09/04 08:59:39;;;;;;;15.20;12.73;;;18.20;99.90;;;;;;5083738;28;20206;-51
2021/09/04 09:02:12;;;;;;;29.67;23.48;;;18.30;99.90;;;;;;5086680;28;20098;-53
2021/09/04 09:04:40;;;;;;;7.07;3.13;;;18.50;99.90;;;;;;5082373;28;20059;-54
2021/09/04 09:07:09;;;;;;;9.07;5.03;;;18.70;99.90;;;;;;5073330;28;20591;-55
2021/09/04 09:09:38;;;;;;;11.45;5.38;;;19.10;99.90;;;;;;5084341;28;20595;-52
2021/09/04 09:12:13;;;;;;;8.02;4.38;;;19.10;99.90;;;;;;5069126;28;20048;-51
2021/09/04 09:14:57;;;;;;;8.48;5.13;;;19.00;99.90;;;;;;5074076;28;20059;-51
2021/09/04 09:17:27;;;;;;;7.53;3.63;;;19.10;99.90;;;;;;5067041;28;20056;-51
2021/09/04 09:20:04;;;;;;;11.95;7.85;;;19.20;99.90;;;;;;5080306;28;20129;-51
2021/09/04 09:22:44;;;;;;;6.82;3.28;;;19.00;99.90;;;;;;5084866;28;20131;-53
2021/09/04 09:25:15;;;;;;;10.52;5.68;;;19.10;99.90;;;;;;5070266;28;20063;-50
2021/09/04 09:28:00;;;;;;;8.02;3.58;;;19.00;99.90;;;;;;5086613;28;20055;-54
2021/09/04 09:30:45;;;;;;;10.07;5.40;;;19.40;99.90;;;;;;5081377;28;20140;-52
2021/09/04 09:33:17;;;;;;;10.75;4.93;;;19.60;99.90;;;;;;5073156;28;20047;-51
2021/09/04 09:35:54;;;;;;;12.75;3.58;;;19.70;99.90;;;;;;5083112;28;20067;-52
2021/09/04 09:38:30;;;;;;;10.88;5.93;;;19.90;99.90;;;;;;5077122;28;20056;-50
2021/09/04 09:41:06;;;;;;;18.15;13.07;;;21.20;99.90;;;;;;5065428;28;20155;-52
2021/09/04 09:43:37;;;;;;;14.93;8.52;;;21.80;95.50;;;;;;5073499;28;20100;-54
2021/09/04 09:46:07;;;;;;;15.85;13.68;;;22.30;92.80;;;;;;5084214;28;20052;-54
2021/09/04 09:48:37;;;;;;;6.97;4.47;;;22.90;89.60;;;;;;5077873;28;20048;-54
2021/09/04 09:51:05;;;;;;;7.90;3.33;;;23.00;80.40;;;;;;5077037;28;20055;-54
2021/09/04 09:53:34;;;;;;;8.73;6.18;;;23.30;80.30;;;;;;5073552;28;20067;-54
2021/09/04 09:56:03;;;;;;;14.73;13.18;;;23.90;81.90;;;;;;5077234;28;20059;-54
2021/09/04 09:58:32;;;;;;;11.52;9.63;;;23.50;76.50;;;;;;5064782;28;20087;-51
2021/09/04 10:01:01;;;;;;;6.07;2.88;;;23.10;76.60;;;;;;5066737;28;20480;-53
2021/09/04 10:03:29;;;;;;;6.80;5.10;;;22.60;75.20;;;;;;5086198;28;20063;-54
2021/09/04 10:05:59;;;;;;;8.35;4.97;;;22.50;80.90;;;;;;5085304;28;20504;-54
2021/09/04 10:08:27;;;;;;;9.48;4.55;;;22.40;82.50;;;;;;5085363;28;20500;-55
2021/09/04 10:10:57;;;;;;;7.47;3.55;;;22.30;81.90;;;;;;5089823;28;20101;-52
2021/09/04 10:13:23;;;;;;;8.65;3.95;;;22.10;82.60;;;;;;5089238;28;20408;-53
2021/09/04 10:15:55;;;;;;;9.70;6.32;;;22.00;83.60;;;;;;5088258;28;20048;-55
2021/09/04 10:18:28;;;;;;;6.35;3.10;;;21.80;80.20;;;;;;5070272;28;20053;-55
2021/09/04 10:21:11;;;;;;;8.95;5.07;;;22.70;79.50;;;;;;5085916;28;20052;-55
2021/09/04 10:23:39;;;;;;;58.85;52.97;;;23.70;72.70;;;;;;5090480;28;20056;-54
2021/09/04 10:26:26;;;;;;;5.63;3.42;;;24.10;72.30;;;;;;5091062;28;20101;-59
2021/09/04 10:29:04;;;;;;;8.10;5.13;;;24.50;67.20;;;;;;5074857;28;20123;-59
2021/09/04 10:31:56;;;;;;;6.05;3.40;;;25.10;65.20;;;;;;5082318;28;20059;-59
2021/09/04 10:34:37;;;;;;;11.90;3.85;;;25.30;62.60;;;;;;5050451;28;20059;-59
2021/09/04 10:37:06;;;;;;;10.75;7.07;;;25.50;63.40;;;;;;5057550;28;20048;-59
2021/09/04 10:39:51;;;;;;;8.80;3.33;;;25.70;61.10;;;;;;5065089;28;20059;-59
2021/09/04 10:42:28;;;;;;;8.35;3.53;;;26.30;57.30;;;;;;5063307;28;20053;-59
2021/09/04 10:45:16;;;;;;;9.55;5.15;;;26.40;56.90;;;;;;5059335;28;20052;-59
2021/09/04 10:47:47;;;;;;;10.73;7.68;;;26.40;57.30;;;;;;5053699;28;20139;-59
2021/09/04 10:50:21;;;;;;;9.60;4.72;;;26.80;56.90;;;;;;5066111;28;20056;-59
2021/09/04 10:52:49;;;;;;;10.25;5.18;;;26.90;56.80;;;;;;5059709;28;20519;-59
2021/09/04 10:55:27;;;;;;;7.40;3.70;;;26.80;55.80;;;;;;5046307;28;20215;-59
2021/09/04 10:58:09;;;;;;;8.57;5.38;;;26.90;54.20;;;;;;5045800;28;20045;-59
2021/09/04 11:00:42;;;;;;;7.55;4.78;;;27.10;53.20;;;;;;5045883;28;20113;-59
2021/09/04 11:03:10;;;;;;;9.55;5.47;;;27.30;53.60;;;;;;5061191;28;20053;-59
2021/09/04 11:05:50;;;;;;;9.85;4.90;;;27.60;53.90;;;;;;5065886;28;20151;-59
2021/09/04 11:08:19;;;;;;;8.55;5.03;;;27.70;52.80;;;;;;5053524;28;20195;-59
2021/09/04 11:10:48;;;;;;;7.47;4.13;;;27.80;52.10;;;;;;5050430;28;20056;-59
2021/09/04 11:13:16;;;;;;;9.02;4.88;;;27.20;51.90;;;;;;5085207;28;20063;-59
2021/09/04 11:15:47;;;;;;;7.57;4.60;;;27.70;53.00;;;;;;5071358;28;20163;-59
2021/09/04 11:18:17;;;;;;;7.60;5.70;;;28.00;51.40;;;;;;5085796;28;20525;-59
2021/09/04 11:20:45;;;;;;;8.80;6.40;;;27.90;50.70;;;;;;5086682;28;20154;-59
2021/09/04 11:23:11;;;;;;;8.85;6.13;;;27.80;50.90;;;;;;5073727;28;20080;-59
2021/09/04 11:25:41;;;;;;;9.35;6.15;;;28.20;51.80;;;;;;5082294;28;20088;-59
2021/09/04 11:28:07;;;;;;;8.10;6.03;;;28.20;51.10;;;;;;5079609;28;20056;-59
2021/09/04 11:30:33;;;;;;;8.40;5.57;;;27.40;50.60;;;;;;5079592;28;20496;-59
2021/09/04 11:33:15;;;;;;;10.65;5.47;;;27.60;51.70;;;;;;5078850;28;20581;-58
2021/09/04 11:35:48;;;;;;;7.82;4.53;;;27.90;50.50;;;;;;5080520;28;20527;-59
2021/09/04 11:38:17;;;;;;;11.30;6.95;;;28.60;49.30;;;;;;5083900;28;20081;-59
2021/09/04 11:40:47;;;;;;;7.32;4.78;;;28.00;49.50;;;;;;5077000;28;20073;-59
2021/09/04 11:43:16;;;;;;;10.65;5.78;;;27.90;49.10;;;;;;5104223;27;20060;-59
2021/09/04 11:45:43;;;;;;;9.82;7.07;;;27.30;50.10;;;;;;5081358;28;20056;-59
2021/09/04 11:48:12;;;;;;;9.25;6.20;;;27.70;49.90;;;;;;5068697;28;20059;-59
2021/09/04 11:50:39;;;;;;;9.73;5.45;;;27.90;48.70;;;;;;5077177;28;20081;-59
2021/09/04 11:53:13;;;;;;;9.93;6.68;;;28.40;50.10;;;;;;5088479;28;20087;-58
2021/09/04 11:55:41;;;;;;;8.43;5.30;;;28.30;47.90;;;;;;5083005;28;20063;-58
2021/09/04 11:58:12;;;;;;;9.13;5.97;;;28.50;48.20;;;;;;5070758;28;20528;-58
2021/09/04 12:00:44;;;;;;;7.85;6.63;;;28.60;47.70;;;;;;5088604;28;20493;-59
2021/09/04 12:03:13;;;;;;;8.53;6.87;;;28.70;48.30;;;;;;5084814;28;20055;-59
2021/09/04 12:05:45;;;;;;;8.88;6.00;;;29.10;47.70;;;;;;5087680;28;20686;-58
2021/09/04 12:08:26;;;;;;;11.00;6.88;;;28.80;47.40;;;;;;5087366;28;20060;-59
2021/09/04 12:10:59;;;;;;;7.25;5.43;;;28.80;47.70;;;;;;5111093;27;20062;-58
2021/09/04 12:13:28;;;;;;;10.32;5.70;;;29.00;47.30;;;;;;5074780;28;20785;-58
2021/09/04 12:15:56;;;;;;;12.02;7.57;;;29.00;46.60;;;;;;5068237;28;20426;-58
2021/09/04 12:18:29;;;;;;;9.10;6.20;;;29.20;46.20;;;;;;5068133;28;20053;-59
2021/09/04 12:20:57;;;;;;;12.40;6.97;;;29.00;46.40;;;;;;5082553;28;20048;-59
2021/09/04 12:23:26;;;;;;;9.95;7.60;;;29.30;46.50;;;;;;5071618;28;20060;-58
2021/09/04 12:26:03;;;;;;;9.63;7.05;;;29.00;46.80;;;;;;5067609;28;20052;-59
2021/09/04 12:28:30;;;;;;;8.38;6.10;;;28.90;47.30;;;;;;5068077;28;20062;-58
2021/09/04 12:31:10;;;;;;;10.13;7.20;;;29.20;47.40;;;;;;5085178;28;20060;-59
2021/09/04 12:33:51;;;;;;;10.70;6.35;;;28.90;46.70;;;;;;5084168;28;20141;-59
2021/09/04 12:36:29;;;;;;;9.32;6.40;;;29.00;46.30;;;;;;5087092;28;20408;-58
2021/09/04 12:38:58;;;;;;;8.93;6.97;;;29.20;45.80;;;;;;5087048;28;20113;-58
2021/09/04 12:42:02;;;;;;;11.02;6.82;;;29.20;46.50;;;;;;5084477;28;20428;-59
2021/09/04 12:44:37;;;;;;;9.02;6.38;;;29.00;45.80;;;;;;5070438;28;20589;-58
2021/09/04 12:47:04;;;;;;;9.82;7.07;;;29.20;46.30;;;;;;5075487;28;20890;-59
2021/09/04 12:49:38;;;;;;;10.80;6.80;;;29.20;45.70;;;;;;5063429;28;20147;-58
2021/09/04 12:52:22;;;;;;;10.25;6.88;;;29.20;46.30;;;;;;5063622;28;20063;-58